createdAt,value
2023-01-27T00:00:32.369Z,97.20
2023-01-27T00:05:35.422Z,97.93
2023-01-27T00:10:38.679Z,97.12
2023-01-27T00:15:43.063Z,98.43
2023-01-27T00:21:03.415Z,98.36
2023-01-27T00:26:08.385Z,98.80
2023-01-27T00:31:31.868Z,98.83
2023-01-27T00:36:34.779Z,98.67
2023-01-27T00:41:38.012Z,98.32
2023-01-27T00:46:42.729Z,97.92
2023-01-27T00:51:46.213Z,98.53
2023-01-27T00:56:49.308Z,99.27
2023-01-27T01:01:53.579Z,98.38
2023-01-27T01:06:56.460Z,98.26
2023-01-27T01:12:00.416Z,97.52
2023-01-27T01:17:04.689Z,97.50
2023-01-27T01:22:07.634Z,97.17
2023-01-27T01:27:10.606Z,96.46
2023-01-27T01:32:15.015Z,96.01
2023-01-27T01:37:17.942Z,94.90
2023-01-27T01:42:21.152Z,94.67
2023-01-27T01:47:25.452Z,94.24
2023-01-27T01:52:28.471Z,93.30
2023-01-27T01:57:37.630Z,92.60
2023-01-27T02:02:42.873Z,92.50
2023-01-27T02:07:52.835Z,94.59
2023-01-27T02:12:59.460Z,94.00
2023-01-27T02:18:04.772Z,93.28
2023-01-27T02:23:20.121Z,93.52
2023-01-27T02:28:28.030Z,94.35
2023-01-27T02:33:31.586Z,94.15
2023-01-27T02:38:38.205Z,95.33
2023-01-27T02:43:42.907Z,94.64
2023-01-27T02:48:45.852Z,95.46
2023-01-27T02:53:49.252Z,95.49
2023-01-27T02:58:53.607Z,95.26
2023-01-27T03:04:03.277Z,94.84
2023-01-27T03:09:06.864Z,94.35
2023-01-27T03:14:11.398Z,94.67
2023-01-27T03:19:15.511Z,94.29
2023-01-27T03:24:19.066Z,94.29
2023-01-27T03:29:41.692Z,93.06
2023-01-27T03:34:44.664Z,95.08
2023-01-27T03:40:11.923Z,94.99
2023-01-27T03:45:33.835Z,95.25
2023-01-27T03:50:38.382Z,94.45
2023-01-27T03:55:41.272Z,94.53
2023-01-27T04:00:46.155Z,94.68
2023-01-27T04:06:06.387Z,96.19
2023-01-27T04:11:27.975Z,97.45
2023-01-27T04:16:33.331Z,97.44
2023-01-27T04:21:36.683Z,98.88
2023-01-27T04:26:41.805Z,98.97
2023-01-27T04:31:46.149Z,100.00
2023-01-27T04:36:49.538Z,100.00
2023-01-27T04:41:53.056Z,100.00
2023-01-27T04:46:57.304Z,100.00
2023-01-27T04:52:00.207Z,100.00
2023-01-27T04:57:03.871Z,100.00
2023-01-27T05:02:08.193Z,98.82
2023-01-27T05:07:11.191Z,99.55
2023-01-27T05:12:14.098Z,99.04
2023-01-27T05:17:18.394Z,98.89
2023-01-27T05:22:21.301Z,97.98
2023-01-27T05:27:24.363Z,98.90
2023-01-27T05:32:28.836Z,99.75
2023-01-27T05:37:31.732Z,100.00
2023-01-27T05:42:34.719Z,100.00
2023-01-27T05:47:39.076Z,100.00
2023-01-27T05:52:41.964Z,100.00
2023-01-27T05:57:44.834Z,100.00
2023-01-27T06:02:49.205Z,100.00
2023-01-27T06:07:52.096Z,100.00
2023-01-27T06:12:54.988Z,100.00
2023-01-27T06:17:59.744Z,100.00
2023-01-27T06:23:02.810Z,100.00
2023-01-27T06:28:06.644Z,100.00
2023-01-27T06:33:14.679Z,100.00
2023-01-27T06:38:18.283Z,100.00
2023-01-27T06:43:21.240Z,100.00
2023-01-27T06:48:26.053Z,100.00
2023-01-27T06:53:28.948Z,100.00
2023-01-27T06:58:33.066Z,100.00
2023-01-27T07:03:37.351Z,100.00
2023-01-27T07:08:40.286Z,100.00
2023-01-27T07:13:43.157Z,100.00
2023-01-27T07:18:47.426Z,100.00
2023-01-27T07:23:50.333Z,100.00
2023-01-27T07:28:53.916Z,100.00
2023-01-27T07:33:58.257Z,100.00
2023-01-27T07:39:01.181Z,100.00
2023-01-27T07:44:04.187Z,100.00
2023-01-27T07:49:12.586Z,100.00
2023-01-27T07:54:15.564Z,100.00
2023-01-27T07:59:18.719Z,99.65
2023-01-27T08:04:23.112Z,99.73
2023-01-27T08:09:26.026Z,100.00
2023-01-27T08:14:29.100Z,100.00
2023-01-27T08:19:33.354Z,99.50
2023-01-27T08:24:36.691Z,99.31
2023-01-27T08:29:39.586Z,98.65
2023-01-27T08:34:43.930Z,98.49
2023-01-27T08:39:46.843Z,98.59
2023-01-27T08:44:49.764Z,98.80
2023-01-27T08:49:54.748Z,99.38
2023-01-27T08:54:58.177Z,99.22
2023-01-27T09:00:01.107Z,99.40
2023-01-27T09:05:06.766Z,98.98
2023-01-27T09:10:20.268Z,98.47
2023-01-27T09:15:23.265Z,97.73
2023-01-27T09:20:27.552Z,97.52
2023-01-27T09:25:30.974Z,96.67
2023-01-27T09:30:33.930Z,95.80
2023-01-27T09:35:44.197Z,95.93
2023-01-27T09:41:04.646Z,97.05
2023-01-27T09:46:26.169Z,97.22
2023-01-27T09:51:40.888Z,98.25
2023-01-27T09:56:53.363Z,97.29
2023-01-27T10:02:06.355Z,96.91
2023-01-27T10:07:30.441Z,96.58
2023-01-27T10:12:51.554Z,95.18
2023-01-27T10:18:03.392Z,95.84
2023-01-27T10:23:19.029Z,95.28
2023-01-27T10:28:25.187Z,93.48
2023-01-27T10:33:47.193Z,92.90
2023-01-27T10:39:04.581Z,91.52
2023-01-27T10:44:26.050Z,92.22
2023-01-27T10:49:33.397Z,93.35
2023-01-27T10:54:43.537Z,94.58
2023-01-27T11:00:33.698Z,94.76
2023-01-27T11:05:22.013Z,95.56
2023-01-27T11:10:34.669Z,97.02
2023-01-27T11:15:39.103Z,98.19
2023-01-27T11:20:46.988Z,98.37
2023-01-27T11:25:57.709Z,98.49
2023-01-27T11:31:08.984Z,98.75
2023-01-27T11:36:12.299Z,98.89
2023-01-27T11:41:16.587Z,98.55
2023-01-27T11:46:23.825Z,97.98
2023-01-27T11:51:32.750Z,97.92
2023-01-27T11:56:38.869Z,97.92
2023-01-27T12:01:48.645Z,98.15
2023-01-27T12:06:56.553Z,96.80
2023-01-27T12:12:22.665Z,98.28
2023-01-27T12:17:32.155Z,96.82
2023-01-27T12:22:37.459Z,96.78
2023-01-27T12:27:48.425Z,96.02
2023-01-27T12:32:52.492Z,95.21
2023-01-27T12:38:02.840Z,95.20
2023-01-27T12:43:12.339Z,96.71
2023-01-27T12:48:21.112Z,95.72
2023-01-27T12:53:27.629Z,97.70
2023-01-27T12:58:38.782Z,97.49
2023-01-27T13:03:43.599Z,97.52
2023-01-27T13:08:48.423Z,98.41
2023-01-27T13:13:52.780Z,97.99
2023-01-27T13:18:57.661Z,97.92
2023-01-27T13:24:04.052Z,96.45
2023-01-27T13:29:16.879Z,96.22
2023-01-27T13:34:27.239Z,95.54
2023-01-27T13:39:44.958Z,95.96
2023-01-27T13:44:56.353Z,98.12
2023-01-27T13:50:04.567Z,98.98
2023-01-27T13:55:13.008Z,98.51
2023-01-27T14:00:23.882Z,97.92
2023-01-27T14:05:38.193Z,98.44
2023-01-27T14:10:43.042Z,98.66
2023-01-27T14:15:55.022Z,97.31
2023-01-27T14:21:15.348Z,97.29
2023-01-27T14:26:30.886Z,97.71
2023-01-27T14:31:45.852Z,96.97
2023-01-27T14:36:56.458Z,97.37
2023-01-27T14:42:07.786Z,97.66
2023-01-27T14:47:24.145Z,97.66
2023-01-27T14:52:44.222Z,98.58
2023-01-27T14:57:56.751Z,98.38
2023-01-27T15:03:15.457Z,98.14
2023-01-27T15:08:27.767Z,98.56
2023-01-27T15:13:51.340Z,97.24
2023-01-27T15:19:13.822Z,97.04
2023-01-27T15:24:39.288Z,96.39
2023-01-27T15:29:42.403Z,98.29
2023-01-27T15:34:53.442Z,97.65
2023-01-27T15:40:16.399Z,97.73
2023-01-27T15:45:30.760Z,96.54
2023-01-27T15:50:38.984Z,97.00
2023-01-27T15:55:49.908Z,96.34
2023-01-27T16:00:54.735Z,95.71
2023-01-27T16:06:03.405Z,94.76
2023-01-27T16:11:39.437Z,94.84
2023-01-27T16:16:47.304Z,95.26
2023-01-27T16:21:58.032Z,96.24
2023-01-27T16:27:08.626Z,96.65
2023-01-27T16:32:18.386Z,96.89
2023-01-27T16:37:27.052Z,98.25
2023-01-27T16:42:33.945Z,99.74
2023-01-27T16:47:44.484Z,99.99
2023-01-27T16:52:48.792Z,100.00
2023-01-27T16:57:53.056Z,100.00
2023-01-27T17:02:59.167Z,100.00
2023-01-27T17:08:05.584Z,100.00
2023-01-27T17:13:26.807Z,98.15
2023-01-27T17:18:37.575Z,96.62
2023-01-27T17:23:44.955Z,92.87
2023-01-27T17:28:48.967Z,94.34
2023-01-27T17:33:59.653Z,92.89
2023-01-27T17:39:04.002Z,92.33
2023-01-27T17:44:13.112Z,94.01
2023-01-27T17:49:18.636Z,92.37
2023-01-27T17:54:27.242Z,92.16
2023-01-27T17:59:30.390Z,90.37
2023-01-27T18:04:39.014Z,90.73
2023-01-27T18:09:47.143Z,90.73
2023-01-27T18:14:50.035Z,90.82
2023-01-27T18:19:55.122Z,89.84
2023-01-27T18:25:03.685Z,90.42
2023-01-27T18:30:13.641Z,90.07
2023-01-27T18:35:24.919Z,90.68
2023-01-27T18:40:31.856Z,90.27
2023-01-27T18:45:34.823Z,91.18
2023-01-27T18:50:42.224Z,92.41
2023-01-27T18:55:46.539Z,92.99
2023-01-27T19:00:51.551Z,92.66
2023-01-27T19:05:55.081Z,92.04
2023-01-27T19:10:59.361Z,92.85
2023-01-27T19:16:02.495Z,91.90
2023-01-27T19:21:06.220Z,93.09
2023-01-27T19:26:17.341Z,93.39
2023-01-27T19:31:21.092Z,93.09
2023-01-27T19:36:26.436Z,94.75
2023-01-27T19:41:30.677Z,93.60
2023-01-27T19:46:35.117Z,94.40
2023-01-27T19:51:38.266Z,94.74
2023-01-27T19:56:42.883Z,94.56
2023-01-27T20:01:45.852Z,93.70
2023-01-27T20:06:48.746Z,93.85
2023-01-27T20:11:52.978Z,94.46
2023-01-27T20:16:55.915Z,95.33
2023-01-27T20:22:01.122Z,94.46
2023-01-27T20:27:05.576Z,94.96
2023-01-27T20:32:09.545Z,95.17
2023-01-27T20:37:12.552Z,94.80
2023-01-27T20:42:16.825Z,94.97
2023-01-27T20:47:19.798Z,94.20
2023-01-27T20:52:25.028Z,94.42
2023-01-27T20:57:31.156Z,93.67
2023-01-27T21:02:34.238Z,94.20
2023-01-27T21:07:37.201Z,93.43
2023-01-27T21:12:41.532Z,93.80
2023-01-27T21:17:44.427Z,94.38
2023-01-27T21:22:47.360Z,93.82
2023-01-27T21:27:51.625Z,93.32
2023-01-27T21:32:54.544Z,94.22
2023-01-27T21:37:57.469Z,94.71
2023-01-27T21:43:18.820Z,95.28
2023-01-27T21:48:21.733Z,94.91
2023-01-27T21:53:25.472Z,93.77
2023-01-27T21:58:29.971Z,94.08
2023-01-27T22:03:32.861Z,94.05
2023-01-27T22:08:35.884Z,93.83
2023-01-27T22:13:40.412Z,92.96
2023-01-27T22:18:43.674Z,92.84
2023-01-27T22:23:47.515Z,91.91
2023-01-27T22:28:51.732Z,91.55
2023-01-27T22:33:55.296Z,91.92
2023-01-27T22:38:58.171Z,92.64
2023-01-27T22:44:02.442Z,92.54
2023-01-27T22:49:05.506Z,92.44
2023-01-27T22:54:10.430Z,92.65
2023-01-27T22:59:14.948Z,92.27
2023-01-27T23:04:17.880Z,93.04
2023-01-27T23:09:20.847Z,92.29
2023-01-27T23:14:25.074Z,92.13
2023-01-27T23:19:27.931Z,92.77
2023-01-27T23:24:30.954Z,93.11
2023-01-27T23:29:35.263Z,95.18
2023-01-27T23:34:38.160Z,94.98
2023-01-27T23:39:45.706Z,94.32
2023-01-27T23:44:50.071Z,96.01
2023-01-27T23:49:52.979Z,96.42
2023-01-27T23:54:56.012Z,95.73
